American Spirit — WDH4653 — position and weather

sailwx.info

Track history (hours):
 
Tides and Currents Weather Stations Pressure Air Temp Water Temp Dewpoint Dewpoint Depression Visibility Wind Speed Wind Dir Waves Ship Positions

American Spirit

Owner: American Commercial Lines LLC, Jeffersonville, IN. More information available from US FCC via Universal Licensing System and Coast Guard Vessel Documentation Center.

Last reported at 2017-Oct-19 20:38 UTC. Time now 2017-Oct-20 04:56 UTC.
Position N 29°51' W 092°21'.

Length 23 m; draft 2.7 m.

Type: Towing. MMSI: 367619920.

Date/timePositionNaut miles runAvg speedWind from/ knotsBaromVisibWave heightAir tempDewpointWater temp
2017-Oct-19 20:38N 29°51' W 092°21'0 2.1
2017-Oct-19 20:30N 29°51' W 092°21'2 4.2
2017-Oct-19 20:00N 29°50' W 092°19'2 3.6
2017-Oct-19 19:30N 29°49' W 092°17'2 4.3
2017-Oct-19 19:00N 29°48' W 092°15'2 3.9
2017-Oct-19 18:30N 29°47' W 092°13'1 1.4
2017-Oct-19 18:00N 29°47' W 092°12'1 1.8
2017-Oct-19 17:30N 29°47' W 092°11'0 0.0
2017-Oct-19 17:00N 29°47' W 092°11'0 0.0
2017-Oct-19 16:30N 29°47' W 092°11'0 0.1
2017-Oct-19 16:00N 29°47' W 092°11'0 0.8
2017-Oct-19 15:30N 29°47' W 092°11'2 4.0
2017-Oct-19 15:00N 29°47' W 092°09'2 4.2
2017-Oct-19 14:30N 29°48' W 092°06'2 4.6
2017-Oct-19 14:00N 29°49' W 092°04'3 4.5
2017-Oct-19 13:25N 29°49' W 092°01'58 3.9
2017-Oct-18 22:48N 29°34' W 090°57'2 5.4
2017-Oct-18 22:30N 29°34' W 090°55'4 5.4
2017-Oct-18 21:49N 29°32' W 090°51'2 5.4
2017-Oct-18 21:30N 29°32' W 090°49'3 5.3
2017-Oct-18 21:00N 29°32' W 090°46'2 4.6
2017-Oct-18 20:30N 29°34' W 090°44'1 2.8
2017-Oct-18 20:00N 29°35' W 090°43'2 3.7
2017-Oct-18 19:30N 29°36' W 090°43'2 3.5
2017-Oct-18 19:00N 29°36' W 090°41'2 4.0
2017-Oct-18 18:30N 29°35' W 090°38'1 2.5
2017-Oct-18 18:00N 29°35' W 090°37'2 3.9
2017-Oct-18 17:30N 29°35' W 090°35'2 4.5
2017-Oct-18 17:00N 29°34' W 090°33'2 4.3
2017-Oct-18 16:28N 29°34' W 090°30'  
2017-Oct-12 01:20N 29°34' W 090°23'4 2.9
2017-Oct-11 23:50N 29°34' W 090°28'2 7.3
2017-Oct-11 23:30N 29°34' W 090°31'3 6.8
2017-Oct-11 23:00N 29°34' W 090°35'3 6.4
2017-Oct-11 22:30N 29°35' W 090°38'3 5.7
2017-Oct-11 22:00N 29°37' W 090°41'2 3.2
2017-Oct-11 21:30N 29°35' W 090°43'2 3.5
2017-Oct-11 21:00N 29°34' W 090°44'2 3.3
2017-Oct-11 20:30N 29°33' W 090°45'0 0.0
2017-Oct-11 20:00N 29°33' W 090°45'0 0.1
2017-Oct-11 19:30N 29°33' W 090°45'0 0.0
2017-Oct-11 19:00N 29°33' W 090°45'1 2.4
2017-Oct-11 18:30N 29°32' W 090°46'4 7.6
2017-Oct-11 18:00N 29°32' W 090°51'117 4.3
2017-Oct-10 14:56N 29°56' W 093°02'5 5.7
2017-Oct-10 14:00N 29°56' W 093°08'3 5.2
2017-Oct-10 13:30N 29°58' W 093°11'3 6.1
2017-Oct-10 13:00N 29°60' W 093°13'2 4.2
2017-Oct-10 12:30N 30°02' W 093°14'2 4.0
2017-Oct-10 12:00N 30°03' W 093°16'2 3.9
2017-Oct-10 11:30N 30°05' W 093°17'2 3.2
2017-Oct-10 11:00N 30°06' W 093°18'1 1.4
2017-Oct-10 10:30N 30°06' W 093°19'0 0.0
2017-Oct-10 10:00N 30°06' W 093°19'0 0.0
2017-Oct-10 09:30N 30°06' W 093°19'0 0.0
2017-Oct-10 09:00N 30°06' W 093°19'0 0.0
2017-Oct-10 08:30N 30°06' W 093°19'0 0.0
2017-Oct-10 08:00N 30°06' W 093°19'0 0.0
2017-Oct-10 07:30N 30°06' W 093°19'0 0.0
2017-Oct-10 07:00N 30°06' W 093°19'0 0.0
2017-Oct-10 06:30N 30°06' W 093°19'0 0.0
2017-Oct-10 06:00N 30°06' W 093°19'0 0.0
2017-Oct-10 05:30N 30°06' W 093°19'0 0.0
2017-Oct-10 05:00N 30°06' W 093°19'0 0.0
2017-Oct-10 04:30N 30°06' W 093°19'0 0.0
2017-Oct-10 04:00N 30°06' W 093°19'0 0.0
2017-Oct-10 03:30N 30°06' W 093°19'0 0.0
2017-Oct-10 03:00N 30°06' W 093°19'0 0.0
2017-Oct-10 02:30N 30°06' W 093°19'0 0.0
2017-Oct-10 02:00N 30°06' W 093°19'0 0.0
2017-Oct-10 01:30N 30°06' W 093°19'0 0.0
2017-Oct-10 01:00N 30°06' W 093°19'0 0.0
2017-Oct-10 00:30N 30°06' W 093°19'0 0.0
2017-Oct-10 00:00N 30°06' W 093°19'0 0.0
2017-Oct-09 23:30N 30°06' W 093°19'0 0.0
2017-Oct-09 23:00N 30°06' W 093°19'0 0.1
2017-Oct-09 22:30N 30°06' W 093°19'1 2.1
2017-Oct-09 22:00N 30°05' W 093°20'2 4.4
2017-Oct-09 21:30N 30°04' W 093°22'0 0.0
2017-Oct-09 21:00N 30°04' W 093°22'  
Track history (hours):
 
Tides and Currents Weather Stations Pressure Air Temp Water Temp Dewpoint Dewpoint Depression Visibility Wind Speed Wind Dir Waves Ship Positions

American Spirit

Owner: American Commercial Lines LLC, Jeffersonville, IN. More information available from US FCC via Universal Licensing System and Coast Guard Vessel Documentation Center.

Last reported at 2017-Oct-19 20:38 UTC. Time now 2017-Oct-20 04:56 UTC.
Position N 29°51' W 092°21'.

Length 23 m; draft 2.7 m.

Type: Towing. MMSI: 367619920.

Date/timePositionNaut miles runAvg speedWind from/ knotsBaromVisibWave heightAir tempDewpointWater temp
2017-Oct-19 20:38N 29°51' W 092°21'0 2.1
2017-Oct-19 20:30N 29°51' W 092°21'2 4.2
2017-Oct-19 20:00N 29°50' W 092°19'2 3.6
2017-Oct-19 19:30N 29°49' W 092°17'2 4.3
2017-Oct-19 19:00N 29°48' W 092°15'2 3.9
2017-Oct-19 18:30N 29°47' W 092°13'1 1.4
2017-Oct-19 18:00N 29°47' W 092°12'1 1.8
2017-Oct-19 17:30N 29°47' W 092°11'0 0.0
2017-Oct-19 17:00N 29°47' W 092°11'0 0.0
2017-Oct-19 16:30N 29°47' W 092°11'0 0.1
2017-Oct-19 16:00N 29°47' W 092°11'0 0.8
2017-Oct-19 15:30N 29°47' W 092°11'2 4.0
2017-Oct-19 15:00N 29°47' W 092°09'2 4.2
2017-Oct-19 14:30N 29°48' W 092°06'2 4.6
2017-Oct-19 14:00N 29°49' W 092°04'3 4.5
2017-Oct-19 13:25N 29°49' W 092°01'58 3.9
2017-Oct-18 22:48N 29°34' W 090°57'2 5.4
2017-Oct-18 22:30N 29°34' W 090°55'4 5.4
2017-Oct-18 21:49N 29°32' W 090°51'2 5.4
2017-Oct-18 21:30N 29°32' W 090°49'3 5.3
2017-Oct-18 21:00N 29°32' W 090°46'2 4.6
2017-Oct-18 20:30N 29°34' W 090°44'1 2.8
2017-Oct-18 20:00N 29°35' W 090°43'2 3.7
2017-Oct-18 19:30N 29°36' W 090°43'2 3.5
2017-Oct-18 19:00N 29°36' W 090°41'2 4.0
2017-Oct-18 18:30N 29°35' W 090°38'1 2.5
2017-Oct-18 18:00N 29°35' W 090°37'2 3.9
2017-Oct-18 17:30N 29°35' W 090°35'2 4.5
2017-Oct-18 17:00N 29°34' W 090°33'2 4.3
2017-Oct-18 16:28N 29°34' W 090°30'  
2017-Oct-12 01:20N 29°34' W 090°23'4 2.9
2017-Oct-11 23:50N 29°34' W 090°28'2 7.3
2017-Oct-11 23:30N 29°34' W 090°31'3 6.8
2017-Oct-11 23:00N 29°34' W 090°35'3 6.4
2017-Oct-11 22:30N 29°35' W 090°38'3 5.7
2017-Oct-11 22:00N 29°37' W 090°41'2 3.2
2017-Oct-11 21:30N 29°35' W 090°43'2 3.5
2017-Oct-11 21:00N 29°34' W 090°44'2 3.3
2017-Oct-11 20:30N 29°33' W 090°45'0 0.0
2017-Oct-11 20:00N 29°33' W 090°45'0 0.1
2017-Oct-11 19:30N 29°33' W 090°45'0 0.0
2017-Oct-11 19:00N 29°33' W 090°45'1 2.4
2017-Oct-11 18:30N 29°32' W 090°46'4 7.6
2017-Oct-11 18:00N 29°32' W 090°51'117 4.3
2017-Oct-10 14:56N 29°56' W 093°02'5 5.7
2017-Oct-10 14:00N 29°56' W 093°08'3 5.2
2017-Oct-10 13:30N 29°58' W 093°11'3 6.1
2017-Oct-10 13:00N 29°60' W 093°13'2 4.2
2017-Oct-10 12:30N 30°02' W 093°14'2 4.0
2017-Oct-10 12:00N 30°03' W 093°16'2 3.9
2017-Oct-10 11:30N 30°05' W 093°17'2 3.2
2017-Oct-10 11:00N 30°06' W 093°18'1 1.4
2017-Oct-10 10:30N 30°06' W 093°19'0 0.0
2017-Oct-10 10:00N 30°06' W 093°19'0 0.0
2017-Oct-10 09:30N 30°06' W 093°19'0 0.0
2017-Oct-10 09:00N 30°06' W 093°19'0 0.0
2017-Oct-10 08:30N 30°06' W 093°19'0 0.0
2017-Oct-10 08:00N 30°06' W 093°19'0 0.0
2017-Oct-10 07:30N 30°06' W 093°19'0 0.0
2017-Oct-10 07:00N 30°06' W 093°19'0 0.0
2017-Oct-10 06:30N 30°06' W 093°19'0 0.0
2017-Oct-10 06:00N 30°06' W 093°19'0 0.0
2017-Oct-10 05:30N 30°06' W 093°19'0 0.0
2017-Oct-10 05:00N 30°06' W 093°19'0 0.0
2017-Oct-10 04:30N 30°06' W 093°19'0 0.0
2017-Oct-10 04:00N 30°06' W 093°19'0 0.0
2017-Oct-10 03:30N 30°06' W 093°19'0 0.0
2017-Oct-10 03:00N 30°06' W 093°19'0 0.0
2017-Oct-10 02:30N 30°06' W 093°19'0 0.0
2017-Oct-10 02:00N 30°06' W 093°19'0 0.0
2017-Oct-10 01:30N 30°06' W 093°19'0 0.0
2017-Oct-10 01:00N 30°06' W 093°19'0 0.0
2017-Oct-10 00:30N 30°06' W 093°19'0 0.0
2017-Oct-10 00:00N 30°06' W 093°19'0 0.0
2017-Oct-09 23:30N 30°06' W 093°19'0 0.0
2017-Oct-09 23:00N 30°06' W 093°19'0 0.1
2017-Oct-09 22:30N 30°06' W 093°19'1 2.1
2017-Oct-09 22:00N 30°05' W 093°20'2 4.4
2017-Oct-09 21:30N 30°04' W 093°22'0 0.0
2017-Oct-09 21:00N 30°04' W 093°22'  

Dump ship's entire track history